createdAt,value
2018-02-06T00:00:24.090Z,68.50
2018-02-06T00:02:51.554Z,68.30
2018-02-06T00:05:19.035Z,68.30
2018-02-06T00:07:46.469Z,68.40
2018-02-06T00:10:13.903Z,68.50
2018-02-06T00:12:41.351Z,69.20
2018-02-06T00:15:08.787Z,69.50
2018-02-06T00:17:36.239Z,70.20
2018-02-06T00:20:03.695Z,69.70
2018-02-06T00:22:42.859Z,69.30
2018-02-06T00:25:10.319Z,68.80
2018-02-06T00:27:37.837Z,69.70
2018-02-06T00:30:05.285Z,69.00
2018-02-06T00:32:33.480Z,69.40
2018-02-06T00:35:00.945Z,69.20
2018-02-06T00:37:28.412Z,69.50
2018-02-06T00:39:55.887Z,69.30
2018-02-06T00:42:23.352Z,69.50
2018-02-06T00:44:50.793Z,69.60
2018-02-06T00:47:18.249Z,69.90
2018-02-06T00:49:45.705Z,70.00
2018-02-06T00:52:13.156Z,70.10
2018-02-06T00:54:40.596Z,69.10
2018-02-06T00:57:08.083Z,68.70
2018-02-06T00:59:35.525Z,67.60
2018-02-06T01:02:02.988Z,67.50
2018-02-06T01:04:30.440Z,68.10
2018-02-06T01:06:57.896Z,68.30
2018-02-06T01:09:27.066Z,69.00
2018-02-06T01:11:54.522Z,69.10
2018-02-06T01:14:21.979Z,69.40
2018-02-06T01:16:49.463Z,70.70
2018-02-06T01:19:16.931Z,70.00
2018-02-06T01:21:44.373Z,69.90
2018-02-06T01:24:11.848Z,69.30
2018-02-06T01:26:39.341Z,68.10
2018-02-06T01:29:06.755Z,68.70
2018-02-06T01:31:34.210Z,68.20
2018-02-06T01:34:01.667Z,68.20
2018-02-06T01:36:29.125Z,68.80
2018-02-06T01:38:56.583Z,69.10
2018-02-06T01:41:24.039Z,69.30
2018-02-06T01:43:51.496Z,69.20
2018-02-06T01:46:18.927Z,68.50
2018-02-06T01:48:46.382Z,67.70
2018-02-06T01:51:13.839Z,68.30
2018-02-06T01:53:41.284Z,68.70
2018-02-06T01:56:09.489Z,68.30
2018-02-06T01:58:36.940Z,68.10
2018-02-06T02:01:04.395Z,66.80
2018-02-06T02:03:31.824Z,65.90
2018-02-06T02:05:59.277Z,65.40
2018-02-06T02:08:26.707Z,65.70
2018-02-06T02:10:54.172Z,67.10
2018-02-06T02:13:21.619Z,67.90
2018-02-06T02:15:49.059Z,68.30
2018-02-06T02:18:16.512Z,68.50
2018-02-06T02:20:43.972Z,68.20
2018-02-06T02:23:11.408Z,67.20
2018-02-06T02:25:38.868Z,67.40
2018-02-06T02:28:06.329Z,67.30
2018-02-06T02:30:33.790Z,66.80
2018-02-06T02:33:01.222Z,66.10
2018-02-06T02:35:28.671Z,66.50
2018-02-06T02:38:00.745Z,66.30
2018-02-06T02:40:28.180Z,66.20
2018-02-06T04:38:27.319Z,66.50
2018-02-06T04:40:54.770Z,67.80
2018-02-06T04:43:22.223Z,68.30
2018-02-06T04:45:49.698Z,68.50
2018-02-06T04:48:17.139Z,68.50
2018-02-06T04:50:44.603Z,68.60
2018-02-06T04:53:12.049Z,67.80
2018-02-06T04:55:39.498Z,67.80
2018-02-06T04:58:06.946Z,67.40
2018-02-06T05:00:34.379Z,66.00
2018-02-06T05:03:02.599Z,67.50
2018-02-06T05:05:30.053Z,67.50
2018-02-06T05:07:57.512Z,67.70
2018-02-06T05:10:24.951Z,68.30
2018-02-06T05:12:52.405Z,69.10
2018-02-06T05:15:19.844Z,69.30
2018-02-06T05:17:47.279Z,69.60
2018-02-06T05:20:14.726Z,69.80
2018-02-06T05:22:42.172Z,69.10
2018-02-06T05:25:09.622Z,69.20
2018-02-06T05:27:37.056Z,69.20
2018-02-06T05:30:04.515Z,68.40
2018-02-06T05:32:32.062Z,68.20
2018-02-06T05:34:59.534Z,67.70
2018-02-06T05:37:26.991Z,68.20
2018-02-06T05:39:54.418Z,68.90
2018-02-06T05:42:21.875Z,70.00
2018-02-06T05:44:49.309Z,69.30
2018-02-06T05:47:16.779Z,69.50
2018-02-06T05:49:44.218Z,69.80
2018-02-06T05:52:11.667Z,69.60
2018-02-06T05:54:39.115Z,69.30
2018-02-06T05:57:06.559Z,68.80
2018-02-06T05:59:34.013Z,68.40
2018-02-06T06:02:02.092Z,68.60
2018-02-06T06:04:29.551Z,68.40
2018-02-06T06:06:57.000Z,68.20
2018-02-06T06:09:24.457Z,67.60
2018-02-06T06:11:51.931Z,67.50
2018-02-06T06:14:19.369Z,67.10
2018-02-06T06:16:46.921Z,67.00
2018-02-06T06:19:14.364Z,67.40
2018-02-06T06:21:41.821Z,67.50
2018-02-06T06:24:09.272Z,68.00
2018-02-06T06:26:36.696Z,68.30
2018-02-06T06:29:04.931Z,70.80
2018-02-06T06:31:32.494Z,69.90
2018-02-06T06:34:00.086Z,69.50
2018-02-06T06:36:27.669Z,69.70
2018-02-06T06:38:55.990Z,69.10
2018-02-06T06:41:23.573Z,68.80
2018-02-06T06:43:51.110Z,69.30
2018-02-06T06:46:18.694Z,70.00
2018-02-06T06:48:46.242Z,70.40
2018-02-06T06:51:13.816Z,71.10
2018-02-06T06:53:41.417Z,70.80
2018-02-06T06:56:09.770Z,70.30
2018-02-06T06:58:37.323Z,70.20
2018-02-06T07:01:04.974Z,71.30
2018-02-06T07:03:32.555Z,70.50
2018-02-06T07:06:00.142Z,69.70
2018-02-06T07:08:27.745Z,68.70
2018-02-06T07:10:55.344Z,68.60
2018-02-06T07:13:22.938Z,69.60
2018-02-06T07:15:50.554Z,69.70
2018-02-06T07:18:18.139Z,69.70
2018-02-06T07:20:45.743Z,69.00
2018-02-06T07:23:13.301Z,68.60
2018-02-06T07:25:40.937Z,68.40
2018-02-06T07:28:08.546Z,68.10
2018-02-06T07:30:36.121Z,68.50
2018-02-06T07:33:03.765Z,68.50
2018-02-06T07:35:31.368Z,68.10
2018-02-06T07:37:58.921Z,68.10
2018-02-06T07:40:26.522Z,68.40
2018-02-06T07:42:54.081Z,68.70
2018-02-06T07:45:21.661Z,68.10
2018-02-06T07:47:49.246Z,67.40
2018-02-06T07:50:16.781Z,68.00
2018-02-06T07:52:44.353Z,68.00
2018-02-06T07:55:11.893Z,67.90
2018-02-06T07:57:39.470Z,66.80
2018-02-06T08:00:07.053Z,67.20
2018-02-06T08:02:35.363Z,65.80
2018-02-06T08:05:02.941Z,65.70
2018-02-06T08:07:30.601Z,64.80
2018-02-06T08:09:58.202Z,64.90
2018-02-06T08:12:25.848Z,64.40
2018-02-06T08:14:53.394Z,64.20
2018-02-06T08:17:20.950Z,64.50
2018-02-06T08:19:49.304Z,65.20
2018-02-06T08:22:16.863Z,65.20
2018-02-06T08:24:44.444Z,65.90
2018-02-06T08:27:12.000Z,65.70
2018-02-06T08:29:39.548Z,65.80
2018-02-06T08:32:07.125Z,65.90
2018-02-06T08:34:34.666Z,65.50
2018-02-06T08:37:02.226Z,64.50
2018-02-06T08:39:29.798Z,63.10
2018-02-06T08:41:57.409Z,62.30
2018-02-06T08:44:24.994Z,63.20
2018-02-06T08:46:52.541Z,62.90
2018-02-06T08:49:20.141Z,63.20
2018-02-06T08:51:47.726Z,64.00
2018-02-06T08:54:15.293Z,63.60
2018-02-06T08:56:42.865Z,64.30
2018-02-06T08:59:11.188Z,63.20
2018-02-06T09:01:38.738Z,63.10
2018-02-06T09:04:06.318Z,62.90
2018-02-06T09:06:34.621Z,63.90
2018-02-06T09:09:02.195Z,63.80
2018-02-06T09:11:29.744Z,63.90
2018-02-06T09:13:57.330Z,64.00
2018-02-06T09:16:24.906Z,64.50
2018-02-06T09:18:52.496Z,63.80
2018-02-06T09:21:20.049Z,64.00
2018-02-06T09:23:47.666Z,63.30
2018-02-06T09:26:16.002Z,63.00
2018-02-06T09:28:43.565Z,62.90
2018-02-06T09:31:11.140Z,61.90
2018-02-06T09:33:38.718Z,62.40
2018-02-06T09:36:07.143Z,62.00
2018-02-06T09:38:34.685Z,61.80
2018-02-06T09:41:02.364Z,62.00
2018-02-06T09:43:31.202Z,61.00
2018-02-06T09:45:59.573Z,60.80
2018-02-06T09:48:27.169Z,60.10
2018-02-06T09:50:54.702Z,59.20
2018-02-06T09:53:22.281Z,58.60
2018-02-06T09:55:49.866Z,58.80
2018-02-06T09:58:17.415Z,58.20
2018-02-06T10:00:45.003Z,58.50
2018-02-06T10:03:12.547Z,58.00
2018-02-06T10:05:40.117Z,58.60
2018-02-06T10:08:07.773Z,58.00
2018-02-06T10:10:35.354Z,56.60
2018-02-06T10:13:02.956Z,56.50
2018-02-06T10:15:31.290Z,55.00
2018-02-06T10:17:59.018Z,54.80
2018-02-06T10:20:26.581Z,55.50
2018-02-06T10:22:54.114Z,54.80
2018-02-06T10:25:21.678Z,54.10
2018-02-06T10:27:50.009Z,54.20
2018-02-06T10:30:17.550Z,54.20
2018-02-06T10:32:45.118Z,53.50
2018-02-06T10:35:12.681Z,53.80
2018-02-06T10:37:40.233Z,52.90
2018-02-06T10:40:08.038Z,52.00
2018-02-06T10:42:35.569Z,51.30
2018-02-06T10:45:03.187Z,50.70
2018-02-06T10:47:30.721Z,49.50
2018-02-06T10:49:58.286Z,47.60
2018-02-06T10:52:25.854Z,46.00
2018-02-06T10:54:53.455Z,44.20
2018-02-06T10:57:21.029Z,40.70
2018-02-06T10:59:48.601Z,38.20
2018-02-06T11:02:16.372Z,34.90
2018-02-06T11:04:43.997Z,34.40
2018-02-06T11:07:11.537Z,34.60
2018-02-06T11:09:39.109Z,33.00
2018-02-06T11:12:06.879Z,32.30
2018-02-06T11:14:34.438Z,29.10
2018-02-06T11:17:02.035Z,30.00
2018-02-06T11:19:29.569Z,28.40
2018-02-06T11:21:57.137Z,28.70
2018-02-06T11:24:24.678Z,29.10
2018-02-06T11:26:52.285Z,30.30
2018-02-06T11:29:19.885Z,29.90
2018-02-06T11:31:47.517Z,29.10
2018-02-06T11:34:15.910Z,30.40
2018-02-06T11:36:43.453Z,30.30
2018-02-06T11:39:11.045Z,30.10
2018-02-06T11:41:38.627Z,30.70
2018-02-06T11:44:06.164Z,30.70
2018-02-06T11:46:33.963Z,31.10
2018-02-06T11:49:01.502Z,31.70
2018-02-06T11:51:29.103Z,33.00
2018-02-06T11:53:56.643Z,35.00
2018-02-06T11:56:24.206Z,35.80
2018-02-06T11:58:51.786Z,35.40
2018-02-06T12:01:19.401Z,35.60
2018-02-06T12:03:46.982Z,35.70
2018-02-06T12:06:14.538Z,36.00
2018-02-06T12:08:42.300Z,36.00
2018-02-06T12:11:09.885Z,34.80
2018-02-06T12:13:37.457Z,34.80
2018-02-06T12:16:06.507Z,35.20
2018-02-06T12:18:34.085Z,35.10
2018-02-06T12:21:01.674Z,34.60
2018-02-06T12:23:29.213Z,33.60
2018-02-06T12:25:56.908Z,32.50
2018-02-06T12:28:24.501Z,31.80
2018-02-06T12:30:53.088Z,30.50
2018-02-06T12:33:20.667Z,30.20
2018-02-06T12:35:48.235Z,30.30
2018-02-06T12:38:15.838Z,30.60
2018-02-06T12:40:44.167Z,32.40
2018-02-06T12:43:11.950Z,32.30
2018-02-06T12:45:39.523Z,33.00
2018-02-06T12:48:07.097Z,33.50
2018-02-06T12:50:34.654Z,34.00
2018-02-06T12:53:02.989Z,34.00
2018-02-06T12:55:30.577Z,33.90
2018-02-06T12:57:58.158Z,33.70
2018-02-06T13:00:25.729Z,33.40
2018-02-06T13:02:53.429Z,33.90
2018-02-06T13:05:21.115Z,34.30
2018-02-06T13:07:48.838Z,34.80
2018-02-06T13:10:16.494Z,34.60
2018-02-06T13:12:44.160Z,33.80
2018-02-06T13:15:11.746Z,32.50
2018-02-06T13:17:39.317Z,31.10
2018-02-06T13:20:06.897Z,29.90
2018-02-06T13:22:35.297Z,27.70
2018-02-06T13:25:02.874Z,27.60
2018-02-06T13:27:30.458Z,26.20
2018-02-06T13:29:58.033Z,25.50
2018-02-06T13:32:25.608Z,24.50
2018-02-06T13:34:53.198Z,24.00
2018-02-06T13:37:20.776Z,23.10
2018-02-06T13:39:48.354Z,22.50
2018-02-06T13:42:15.910Z,22.20
2018-02-06T13:44:43.448Z,22.30
2018-02-06T13:47:11.120Z,22.30
2018-02-06T13:49:38.724Z,21.90
2018-02-06T13:52:06.301Z,21.70
2018-02-06T13:54:34.614Z,21.40
2018-02-06T13:57:02.399Z,21.40
2018-02-06T13:59:29.967Z,21.90
2018-02-06T14:01:57.543Z,22.80
2018-02-06T14:04:25.136Z,23.80
2018-02-06T14:06:52.717Z,24.50
2018-02-06T14:09:20.254Z,25.60
2018-02-06T14:11:47.830Z,27.10
2018-02-06T14:14:15.405Z,28.20
2018-02-06T14:16:43.010Z,29.70
2018-02-06T14:19:11.338Z,33.20
2018-02-06T14:21:38.894Z,33.10
2018-02-06T14:24:06.478Z,34.10
2018-02-06T14:26:34.113Z,34.80
2018-02-06T14:29:01.675Z,35.40
2018-02-06T14:31:29.265Z,36.30
2018-02-06T14:33:56.825Z,37.60
2018-02-06T14:36:24.409Z,38.30
2018-02-06T14:38:51.959Z,39.20
2018-02-06T14:41:19.702Z,40.50
2018-02-06T14:43:47.257Z,40.40
2018-02-06T14:46:14.841Z,40.80
2018-02-06T14:48:42.386Z,41.00
2018-02-06T14:51:09.978Z,41.60
2018-02-06T14:53:37.695Z,42.90
2018-02-06T14:56:05.290Z,43.20
2018-02-06T14:58:32.834Z,43.70
2018-02-06T15:01:00.430Z,44.80
2018-02-06T15:03:28.047Z,44.90
2018-02-06T15:05:55.627Z,45.20
2018-02-06T15:08:23.168Z,45.60
2018-02-06T15:10:50.757Z,45.90
2018-02-06T15:13:18.361Z,46.50
2018-02-06T15:15:45.956Z,47.60
2018-02-06T15:18:13.552Z,48.20
2018-02-06T15:20:41.121Z,47.90
2018-02-06T15:23:08.704Z,48.00
2018-02-06T15:25:36.335Z,48.10
2018-02-06T15:28:03.954Z,48.40
2018-02-06T15:30:31.554Z,49.00
2018-02-06T15:32:59.093Z,49.70
2018-02-06T15:35:27.398Z,50.00
2018-02-06T15:37:54.969Z,50.00
2018-02-06T15:40:22.561Z,49.80
2018-02-06T15:42:50.102Z,49.50
2018-02-06T15:45:18.418Z,50.30
2018-02-06T15:47:46.029Z,49.70
2018-02-06T15:50:13.516Z,50.50
2018-02-06T15:52:40.948Z,50.40
2018-02-06T15:55:08.391Z,50.60
2018-02-06T15:57:35.850Z,50.60
2018-02-06T16:00:03.293Z,50.70
2018-02-06T16:02:30.737Z,50.70
2018-02-06T16:04:58.195Z,51.00
2018-02-06T16:07:25.647Z,51.50
2018-02-06T16:09:53.237Z,51.80
2018-02-06T16:12:20.656Z,52.30
2018-02-06T16:14:48.106Z,52.70
2018-02-06T16:17:15.552Z,52.40
2018-02-06T16:19:43.006Z,52.50
2018-02-06T16:22:10.447Z,52.70
2018-02-06T16:24:37.908Z,52.60
2018-02-06T16:27:05.359Z,52.60
2018-02-06T16:29:32.836Z,53.50
2018-02-06T16:32:00.314Z,54.30
2018-02-06T16:34:28.535Z,54.80
2018-02-06T16:36:55.969Z,54.70
2018-02-06T16:39:23.420Z,55.60
2018-02-06T16:41:50.868Z,56.40
2018-02-06T16:44:18.319Z,56.70
2018-02-06T16:46:46.539Z,57.00
2018-02-06T16:49:14.008Z,57.00
2018-02-06T16:51:41.488Z,57.70
2018-02-06T16:54:08.952Z,58.20
2018-02-06T16:56:36.386Z,58.20
2018-02-06T16:59:03.848Z,57.80
2018-02-06T17:01:31.296Z,59.20
2018-02-06T17:03:58.749Z,59.30
2018-02-06T17:06:26.220Z,59.40
2018-02-06T17:08:53.720Z,59.30
2018-02-06T17:11:21.174Z,59.40
2018-02-06T17:13:49.589Z,59.50
2018-02-06T17:16:17.085Z,59.40
2018-02-06T17:18:44.543Z,59.30
2018-02-06T17:21:11.984Z,58.80
2018-02-06T17:23:39.477Z,58.70
2018-02-06T17:26:07.731Z,59.00
2018-02-06T17:28:35.181Z,59.00
2018-02-06T17:31:02.629Z,58.80
2018-02-06T17:33:30.092Z,58.90
2018-02-06T17:35:57.602Z,58.90
2018-02-06T17:38:25.055Z,59.20
2018-02-06T17:40:52.543Z,59.30
2018-02-06T17:43:20.008Z,59.20
2018-02-06T17:45:47.490Z,59.00
2018-02-06T17:48:14.948Z,58.50
2018-02-06T17:50:42.367Z,58.90
2018-02-06T17:53:09.828Z,59.10
2018-02-06T17:55:37.280Z,59.20
2018-02-06T17:58:04.752Z,59.30
2018-02-06T18:00:32.214Z,59.00
2018-02-06T18:02:59.677Z,59.00
2018-02-06T18:05:27.132Z,59.20
2018-02-06T18:07:54.615Z,59.30
2018-02-06T18:10:22.123Z,59.60
2018-02-06T18:12:49.560Z,60.10
2018-02-06T18:15:17.077Z,60.70
2018-02-06T18:17:44.502Z,61.20
2018-02-06T18:20:12.132Z,61.60
2018-02-06T18:22:39.634Z,62.20
2018-02-06T18:25:07.129Z,61.90
2018-02-06T18:27:34.649Z,62.30
2018-02-06T18:30:02.144Z,62.50
2018-02-06T18:32:30.382Z,62.30
2018-02-06T18:34:57.868Z,62.20
2018-02-06T18:37:25.344Z,62.00
2018-02-06T18:39:52.986Z,61.90
2018-02-06T18:42:22.636Z,62.10
2018-02-06T18:44:50.094Z,61.90
2018-02-06T18:47:17.552Z,62.30
2018-02-06T18:49:45.004Z,62.30
2018-02-06T18:52:13.520Z,61.20
2018-02-06T18:54:41.123Z,61.10
2018-02-06T18:57:08.577Z,61.20
2018-02-06T18:59:36.902Z,60.70
2018-02-06T19:02:04.398Z,60.60
2018-02-06T19:04:31.885Z,60.40
2018-02-06T19:06:59.319Z,61.00
2018-02-06T19:09:26.771Z,62.50
2018-02-06T19:11:54.230Z,62.70
2018-02-06T19:14:21.695Z,63.40
2018-02-06T19:16:49.916Z,63.10
2018-02-06T19:19:17.352Z,63.10
2018-02-06T19:21:44.807Z,63.10
2018-02-06T19:24:12.279Z,63.50
2018-02-06T19:26:39.920Z,63.80
2018-02-06T19:29:07.367Z,64.00
2018-02-06T19:31:34.833Z,63.60
2018-02-06T19:34:02.265Z,62.80
2018-02-06T19:36:29.723Z,62.20
2018-02-06T19:38:57.197Z,61.60
2018-02-06T19:41:24.684Z,61.40
2018-02-06T19:43:52.142Z,61.00
2018-02-06T19:46:19.583Z,61.10
2018-02-06T19:48:47.033Z,60.70
2018-02-06T19:51:14.508Z,60.50
2018-02-06T19:53:41.947Z,60.40
2018-02-06T19:56:09.459Z,60.60
2018-02-06T19:58:36.919Z,60.50
2018-02-06T20:01:04.352Z,60.80
2018-02-06T20:03:32.558Z,61.30
2018-02-06T20:06:00.015Z,61.30
2018-02-06T20:08:27.487Z,60.90
2018-02-06T20:10:55.717Z,61.10
2018-02-06T20:13:23.151Z,61.10
2018-02-06T20:15:50.621Z,61.10
2018-02-06T20:18:18.059Z,61.20
2018-02-06T20:20:45.517Z,61.40
2018-02-06T20:23:13.050Z,61.80
2018-02-06T20:25:40.498Z,61.80
2018-02-06T20:28:07.956Z,61.70
2018-02-06T20:30:35.417Z,61.80
2018-02-06T20:33:02.864Z,61.80
2018-02-06T20:35:30.311Z,62.80
2018-02-06T20:37:57.759Z,61.80
2018-02-06T20:40:25.218Z,62.00
2018-02-06T20:42:52.683Z,62.30
2018-02-06T20:45:20.151Z,62.60
2018-02-06T20:47:47.579Z,62.70
2018-02-06T20:50:15.027Z,63.00
2018-02-06T20:52:42.471Z,63.60
2018-02-06T20:55:09.916Z,63.90
2018-02-06T20:57:37.367Z,63.90
2018-02-06T21:00:04.869Z,64.20
2018-02-06T21:02:32.290Z,64.70
2018-02-06T21:04:59.756Z,64.90
2018-02-06T21:07:27.224Z,64.60
2018-02-06T21:09:54.675Z,64.50
2018-02-06T21:12:22.338Z,64.00
2018-02-06T21:14:49.870Z,63.60
2018-02-06T21:17:17.313Z,63.80
2018-02-06T21:19:44.770Z,63.60
2018-02-06T21:22:12.230Z,63.40
2018-02-06T21:24:39.666Z,63.40
2018-02-06T21:27:07.107Z,63.90
2018-02-06T21:29:34.569Z,64.60
2018-02-06T21:32:02.037Z,64.80
2018-02-06T21:34:29.484Z,65.80
2018-02-06T21:36:56.969Z,66.30
2018-02-06T21:39:24.431Z,66.00
2018-02-06T21:41:51.890Z,66.10
2018-02-06T21:44:19.347Z,66.00
2018-02-06T21:46:46.800Z,67.20
2018-02-06T21:49:15.022Z,67.00
2018-02-06T21:51:42.459Z,66.90
2018-02-06T21:54:09.929Z,66.50
2018-02-06T21:56:37.361Z,66.20
2018-02-06T21:59:05.019Z,66.10
2018-02-06T22:01:32.466Z,66.40
2018-02-06T22:03:59.924Z,66.10
2018-02-06T22:06:27.368Z,65.90
2018-02-06T22:08:54.834Z,66.60
2018-02-06T22:11:22.265Z,66.70
2018-02-06T22:13:49.704Z,67.30
2018-02-06T22:16:17.145Z,66.90
2018-02-06T22:18:44.630Z,67.10
2018-02-06T22:21:12.143Z,66.70
2018-02-06T22:23:39.583Z,67.20
2018-02-06T22:26:07.036Z,67.70
2018-02-06T22:28:34.502Z,67.50
2018-02-06T22:31:01.958Z,67.60
2018-02-06T22:33:29.418Z,68.20
2018-02-06T22:35:57.639Z,67.90
2018-02-06T22:38:25.085Z,67.90
2018-02-06T22:40:52.536Z,68.50
2018-02-06T22:43:20.166Z,69.00
2018-02-06T22:45:47.608Z,69.50
2018-02-06T22:48:15.047Z,69.70
2018-02-06T22:50:42.499Z,69.80
2018-02-06T22:53:09.947Z,69.20
2018-02-06T22:55:37.391Z,69.30
2018-02-06T22:58:04.849Z,69.40
2018-02-06T23:00:32.313Z,69.20
2018-02-06T23:02:59.748Z,69.50
2018-02-06T23:05:27.308Z,69.10
2018-02-06T23:07:54.766Z,68.40
2018-02-06T23:10:22.223Z,68.50
2018-02-06T23:12:49.687Z,67.70
2018-02-06T23:15:17.126Z,67.30
2018-02-06T23:17:44.583Z,67.40
2018-02-06T23:20:12.020Z,66.50
2018-02-06T23:22:39.476Z,66.30
2018-02-06T23:25:06.936Z,66.10
2018-02-06T23:27:34.371Z,66.50
2018-02-06T23:30:02.592Z,68.50
2018-02-06T23:32:30.028Z,68.40
2018-02-06T23:34:57.488Z,68.90
2018-02-06T23:37:24.955Z,69.80
2018-02-06T23:39:52.392Z,70.10
2018-02-06T23:42:20.626Z,69.40
2018-02-06T23:44:48.062Z,69.40
2018-02-06T23:47:15.519Z,69.30
2018-02-06T23:49:43.072Z,69.20
2018-02-06T23:52:10.500Z,68.50
2018-02-06T23:54:37.943Z,68.80
2018-02-06T23:57:05.392Z,68.50
2018-02-06T23:59:32.850Z,68.30
